Time;durP1;ratioP1;P1;durP2;ratioP2;P2;SDS_P1;SDS_P2;PMS_P1;PMS_P2;Temp;Humidity;BMP_temperature;BMP_pressure;BME280_temperature;BME280_humidity;BME280_pressure;Samples;Min_cycle;Max_cycle;Signal;HPM_P1;HPM_P2
2023/11/30 01:05:40;;;;;;;0.10;0.10;;;;;;;0.97;69.32;101256.25;5752037;24;20029;-88
2023/11/30 01:13:19;;;;;;;0.20;0.20;;;;;;;1.11;68.45;101264.75;5854805;23;20020;-88
2023/11/30 04:03:01;;;;;;;0.20;0.20;;;;;;;0.93;71.48;101273.22;5736433;23;20082;-91
2023/11/30 04:05:27;;;;;;;0.10;0.10;;;;;;;1.39;75.37;101314.03;4827959;29;20525;-89
2023/11/30 04:07:52;;;;;;;0.10;0.10;;;;;;;1.36;71.89;101312.31;4811872;29;20044;-88
2023/11/30 04:10:18;;;;;;;0.10;0.10;;;;;;;1.47;71.79;101319.97;4812310;29;20037;-90
2023/11/30 04:12:43;;;;;;;0.10;0.10;;;;;;;1.48;71.12;101323.38;4812265;29;20485;-91
2023/11/30 04:15:09;;;;;;;0.10;0.10;;;;;;;1.44;70.38;101319.97;4828801;29;20045;-92
2023/11/30 04:17:34;;;;;;;0.10;0.10;;;;;;;1.28;70.72;101324.25;4834464;29;20038;-91
2023/11/30 04:20:00;;;;;;;0.10;0.10;;;;;;;1.35;70.30;101319.97;4835217;29;20044;-90
2023/11/30 04:22:25;;;;;;;0.20;0.20;;;;;;;1.32;70.85;101323.38;4850109;29;20045;-92
2023/11/30 04:24:51;;;;;;;0.20;0.20;;;;;;;1.15;70.92;101312.31;4848576;29;20026;-91
2023/11/30 04:27:16;;;;;;;0.20;0.20;;;;;;;1.16;70.46;101326.75;4844531;29;20030;-93
2023/11/30 04:29:42;;;;;;;0.20;0.20;;;;;;;1.17;70.48;101328.44;4827655;29;20058;-92
2023/11/30 04:32:07;;;;;;;0.20;0.20;;;;;;;1.07;70.62;101321.66;4829101;29;20026;-91
2023/11/30 04:34:34;;;;;;;0.20;0.20;;;;;;;0.71;70.72;101274.91;4946897;23;20023;-89
2023/11/30 04:36:59;;;;;;;0.10;0.10;;;;;;;0.88;70.92;101297.00;4908825;23;20161;-92
2023/11/30 04:42:00;;;;;;;0.10;0.10;;;;;;;0.89;71.83;101324.19;5270587;23;20066;-91
2023/11/30 04:44:28;;;;;;;0.20;0.20;;;;;;;0.83;71.92;101318.22;4842413;29;20026;-87
2023/11/30 04:46:54;;;;;;;0.10;0.10;;;;;;;0.90;71.25;101336.09;4812807;29;20502;-92
2023/11/30 04:49:19;;;;;;;0.20;0.20;;;;;;;0.86;71.31;101347.94;4812950;29;20082;-91
2023/11/30 04:51:45;;;;;;;0.20;0.20;;;;;;;0.81;71.45;101350.50;4812552;29;20517;-92
2023/11/30 04:54:11;;;;;;;0.10;0.10;;;;;;;0.80;71.83;101336.06;4813103;29;20029;-93
2023/11/30 04:56:37;;;;;;;0.20;0.20;;;;;;;0.58;71.72;101319.00;4814719;29;20440;-90
2023/11/30 04:59:03;;;;;;;0.10;0.10;;;;;;;0.80;71.84;101355.59;4814685;29;20428;-92
2023/11/30 05:01:29;;;;;;;0.20;0.20;;;;;;;0.78;71.81;101350.47;4827333;29;20030;-92
2023/11/30 05:03:57;;;;;;;0.10;0.10;;;;;;;0.77;71.87;101351.31;4796912;29;20041;-90
2023/11/30 05:06:22;;;;;;;0.20;0.20;;;;;;;0.71;71.95;101346.22;4811178;29;20489;-88
2023/11/30 05:08:48;;;;;;;0.20;0.20;;;;;;;0.68;71.90;101351.28;4792384;29;20040;-86
2023/11/30 05:11:13;;;;;;;0.10;0.10;;;;;;;0.71;71.96;101360.66;4826156;29;20078;-86
2023/11/30 05:13:39;;;;;;;0.20;0.20;;;;;;;0.74;71.97;101361.50;4853379;29;20041;-90
2023/11/30 05:16:05;;;;;;;0.10;0.10;;;;;;;0.65;72.22;101351.28;4843987;29;20036;-91
2023/11/30 05:18:31;;;;;;;0.10;0.10;;;;;;;0.66;71.80;101357.22;4845953;29;20038;-87
2023/11/30 05:20:56;;;;;;;0.20;0.20;;;;;;;0.51;71.90;101342.75;4805511;29;20030;-85
2023/11/30 05:23:23;;;;;;;0.10;0.10;;;;;;;0.56;72.15;101351.25;4832528;29;20034;-88
2023/11/30 05:25:48;;;;;;;0.20;0.20;;;;;;;0.47;72.69;101354.59;4859627;29;20086;-88
2023/11/30 05:28:14;;;;;;;0.10;0.10;;;;;;;0.48;72.52;101340.19;4858934;29;20033;-91
2023/11/30 05:30:39;;;;;;;0.13;0.13;;;;;;;0.52;72.43;101336.81;4861323;29;20030;-91
2023/11/30 05:33:05;;;;;;;0.10;0.10;;;;;;;0.55;72.32;101349.56;4823961;29;20037;-90
2023/11/30 05:35:31;;;;;;;0.15;0.15;;;;;;;0.53;72.45;101348.69;4811947;29;20152;-87
2023/11/30 05:37:57;;;;;;;0.10;0.10;;;;;;;0.52;72.39;101349.53;4808543;29;20492;-87
2023/11/30 05:40:23;;;;;;;0.20;0.20;;;;;;;0.50;72.16;101339.38;4840325;29;20022;-85
2023/11/30 05:42:48;;;;;;;0.10;0.10;;;;;;;0.58;72.05;101347.00;4841116;29;20053;-88
2023/11/30 05:45:14;;;;;;;0.10;0.10;;;;;;;0.63;71.76;101362.31;4823767;29;20037;-89
2023/11/30 05:47:39;;;;;;;0.10;0.10;;;;;;;0.57;71.98;101355.50;4825317;29;20034;-87
2023/11/30 05:50:05;;;;;;;0.20;0.20;;;;;;;0.54;71.89;101369.06;4840610;29;20503;-88
2023/11/30 05:52:31;;;;;;;0.17;0.17;;;;;;;0.40;72.12;101357.13;4802500;29;20521;-82
2023/11/30 05:54:57;;;;;;;0.10;0.10;;;;;;;0.45;72.17;101358.84;4836882;29;20038;-88
2023/11/30 05:57:23;;;;;;;0.10;0.10;;;;;;;0.46;72.66;101364.78;4821652;29;20726;-86
2023/11/30 05:59:48;;;;;;;0.10;0.10;;;;;;;0.56;72.38;101371.63;4840936;29;20125;-85
2023/11/30 06:02:16;;;;;;;0.10;0.10;;;;;;;0.61;71.85;101374.19;4839121;29;20041;-91
2023/11/30 06:04:51;;;;;;;0.20;0.20;;;;;;;0.52;72.24;101370.75;4812898;29;20109;-87
2023/11/30 06:07:17;;;;;;;0.20;0.20;;;;;;;0.48;72.34;101348.66;4823120;29;20086;-86
2023/11/30 06:09:43;;;;;;;0.20;0.20;;;;;;;0.59;72.77;101361.47;4823952;29;20033;-86
2023/11/30 06:12:09;;;;;;;0.10;0.10;;;;;;;0.61;72.94;101372.50;4839029;29;20428;-85
2023/11/30 06:14:34;;;;;;;0.20;0.20;;;;;;;0.65;72.56;101358.91;4812167;29;20052;-87
2023/11/30 06:17:00;;;;;;;0.20;0.20;;;;;;;0.64;72.48;101353.81;4790702;29;20026;-87
2023/11/30 06:19:26;;;;;;;0.10;0.10;;;;;;;0.65;71.96;101341.09;4818660;29;20489;-85
2023/11/30 06:21:51;;;;;;;0.20;0.20;;;;;;;0.78;72.58;101378.47;4822767;29;20038;-88
2023/11/30 06:24:17;;;;;;;0.10;0.10;;;;;;;0.73;72.81;101375.09;4826036;29;20069;-85
2023/11/30 06:26:43;;;;;;;0.20;0.20;;;;;;;0.83;72.46;101379.34;4820641;29;20044;-89
2023/11/30 06:29:13;;;;;;;0.20;0.20;;;;;;;0.88;72.44;101381.06;4806898;29;20461;-92
2023/11/30 06:31:39;;;;;;;0.20;0.20;;;;;;;0.91;72.11;101383.63;4827468;29;20037;-91
2023/11/30 06:34:04;;;;;;;0.10;0.10;;;;;;;0.99;72.02;101394.69;4800461;29;20633;-90
2023/11/30 06:36:30;;;;;;;0.20;0.20;;;;;;;1.03;71.95;101401.50;4840775;29;20030;-86
2023/11/30 06:38:56;;;;;;;0.10;0.10;;;;;;;0.85;72.12;101381.91;4811044;29;20042;-92
2023/11/30 06:41:21;;;;;;;0.20;0.20;;;;;;;0.99;71.01;101402.34;4824245;29;20129;-89
2023/11/30 06:43:46;;;;;;;0.10;0.10;;;;;;;0.81;70.67;101411.63;4830519;29;20357;-91
2023/11/30 06:46:20;;;;;;;0.20;0.20;;;;;;;0.91;70.34;101406.56;4845445;29;20037;-87
2023/11/30 06:48:47;;;;;;;0.10;0.10;;;;;;;0.77;70.01;101383.56;4837516;29;20049;-82
2023/11/30 06:51:13;;;;;;;0.20;0.20;;;;;;;0.66;70.20;101388.63;4821226;29;20044;-87
2023/11/30 06:53:38;;;;;;;0.20;0.20;;;;;;;0.79;70.83;101428.59;4814699;29;20041;-87
2023/11/30 06:56:04;;;;;;;0.20;0.20;;;;;;;0.85;70.37;101428.59;4832011;29;20520;-89
2023/11/30 06:58:29;;;;;;;0.10;0.10;;;;;;;0.79;70.51;101428.59;4840193;29;20044;-85
2023/11/30 07:00:55;;;;;;;0.20;0.20;;;;;;;0.87;70.84;101403.13;4806786;29;20458;-86
2023/11/30 07:03:20;;;;;;;0.20;0.20;;;;;;;1.07;70.58;101411.69;4823592;29;20062;-90
2023/11/30 07:05:46;;;;;;;0.20;0.20;;;;;;;1.23;70.08;101416.81;4808302;29;20052;-92
2023/11/30 07:08:11;;;;;;;0.10;0.10;;;;;;;1.24;70.17;101409.19;4811360;29;20053;-91
2023/11/30 07:10:37;;;;;;;0.20;0.20;;;;;;;1.43;70.00;101410.06;4839212;29;20062;-87
2023/11/30 07:13:02;;;;;;;0.20;0.20;;;;;;;1.50;70.43;101401.56;4826455;29;20041;-92
2023/11/30 07:15:27;;;;;;;0.20;0.20;;;;;;;1.52;70.15;101391.38;4848168;29;20123;-92
2023/11/30 07:17:53;;;;;;;0.20;0.20;;;;;;;1.63;69.99;101398.16;4832150;29;20050;-85
2023/11/30 07:20:18;;;;;;;0.20;0.20;;;;;;;1.79;70.19;101398.19;4848582;29;20054;-87
2023/11/30 07:22:44;;;;;;;0.20;0.20;;;;;;;1.80;69.65;101390.53;4825825;29;20432;-82
2023/11/30 07:25:09;;;;;;;0.20;0.20;;;;;;;1.89;69.86;101390.50;4810825;29;20029;-89
2023/11/30 07:27:35;;;;;;;0.20;0.20;;;;;;;2.10;69.86;101399.00;4841155;29;20053;-88
2023/11/30 07:30:00;;;;;;;0.10;0.10;;;;;;;2.14;69.49;101385.34;4807718;29;20037;-87
2023/11/30 07:32:26;;;;;;;0.20;0.20;;;;;;;2.22;69.52;101381.09;4826666;29;20484;-87
2023/11/30 07:34:51;;;;;;;0.20;0.20;;;;;;;2.32;69.77;101394.69;4825225;29;20098;-84
2023/11/30 07:37:20;;;;;;;0.20;0.20;;;;;;;2.37;68.96;101378.50;4826280;29;20049;-87
2023/11/30 07:39:45;;;;;;;0.10;0.10;;;;;;;2.43;69.45;101369.94;4810911;29;20086;-86
2023/11/30 07:42:10;;;;;;;0.20;0.20;;;;;;;2.56;69.23;101374.19;4824482;29;20443;-83
2023/11/30 07:44:36;;;;;;;0.10;0.10;;;;;;;2.69;68.91;101374.97;4809871;29;20042;-85
2023/11/30 07:47:01;;;;;;;0.10;0.10;;;;;;;2.57;69.15;101340.97;4825216;29;20033;-86
2023/11/30 07:49:27;;;;;;;0.10;0.10;;;;;;;2.77;69.58;101373.22;4828072;29;20586;-89
2023/11/30 07:51:52;;;;;;;0.20;0.20;;;;;;;2.63;69.41;101354.53;4826059;29;20086;-86
2023/11/30 07:54:18;;;;;;;0.20;0.20;;;;;;;2.88;69.68;101387.66;4839665;29;20038;-85
2023/11/30 07:56:43;;;;;;;0.10;0.10;;;;;;;2.88;70.03;101397.88;4816369;29;20046;-83
2023/11/30 07:59:12;;;;;;;0.20;0.20;;;;;;;2.99;69.90;101408.03;4806776;29;20520;-86
2023/11/30 08:01:38;;;;;;;0.20;0.20;;;;;;;2.99;69.98;101423.38;4807645;29;20086;-89
2023/11/30 08:04:03;;;;;;;0.20;0.20;;;;;;;2.99;69.77;101415.69;4848912;29;20033;-90
2023/11/30 08:06:29;;;;;;;0.20;0.20;;;;;;;2.93;69.55;101400.38;4849767;29;20033;-88
2023/11/30 08:08:54;;;;;;;0.20;0.20;;;;;;;2.91;69.40;101399.56;4827890;29;20030;-88
2023/11/30 08:11:20;;;;;;;0.20;0.20;;;;;;;3.19;69.35;101427.53;4826291;29;20029;-92
2023/11/30 08:13:45;;;;;;;0.20;0.20;;;;;;;3.17;69.07;101419.88;4827204;29;20045;-88
2023/11/30 08:16:11;;;;;;;0.20;0.20;;;;;;;3.24;69.77;101425.78;4811672;29;20517;-92
2023/11/30 08:18:36;;;;;;;0.20;0.20;;;;;;;3.22;69.89;101386.59;4819141;29;20038;-87
2023/11/30 08:21:02;;;;;;;0.10;0.10;;;;;;;3.33;69.31;101407.81;4841206;29;20541;-85
2023/11/30 08:23:28;;;;;;;0.10;0.10;;;;;;;3.45;69.82;101389.84;4839959;29;20136;-86
2023/11/30 08:25:53;;;;;;;0.20;0.20;;;;;;;3.40;70.15;101389.03;4825741;29;20186;-83
2023/11/30 08:28:19;;;;;;;0.20;0.20;;;;;;;3.44;70.22;101413.72;4841289;29;20034;-84
2023/11/30 08:30:45;;;;;;;0.20;0.20;;;;;;;3.45;70.82;101403.50;4822409;29;20041;-82
2023/11/30 08:33:10;;;;;;;0.20;0.20;;;;;;;3.51;70.62;101379.56;4824526;29;20038;-84
2023/11/30 08:35:37;;;;;;;0.20;0.20;;;;;;;3.66;70.43;101369.22;4814449;29;20581;-86
2023/11/30 08:38:03;;;;;;;0.20;0.20;;;;;;;3.66;70.36;101370.91;4809959;29;20531;-84
2023/11/30 08:40:28;;;;;;;0.20;0.20;;;;;;;3.78;70.43;101395.56;4817303;29;20044;-88
2023/11/30 08:42:54;;;;;;;0.20;0.20;;;;;;;4.15;75.80;101404.59;4828110;29;20148;-91
2023/11/30 08:45:19;;;;;;;0.20;0.20;;;;;;;4.57;72.92;101395.59;4797178;29;20038;-91
2023/11/30 08:47:45;;;;;;;0.20;0.20;;;;;;;5.01;69.91;101401.00;4830841;29;20941;-92
2023/11/30 08:50:10;;;;;;;0.20;0.20;;;;;;;4.95;67.38;101398.53;4824008;29;20033;-90
2023/11/30 08:52:37;;;;;;;0.10;0.10;;;;;;;4.87;66.48;101380.69;4817648;29;20034;-90
2023/11/30 08:55:02;;;;;;;0.20;0.20;;;;;;;4.75;66.76;101378.28;4799006;29;20042;-91
2023/11/30 08:57:29;;;;;;;0.10;0.10;;;;;;;4.76;66.21;101375.69;4841273;29;20044;-89
2023/11/30 08:59:55;;;;;;;0.20;0.20;;;;;;;4.71;65.67;101374.03;4842294;29;20516;-86
2023/11/30 09:02:21;;;;;;;0.20;0.20;;;;;;;4.47;66.13;101350.44;4824798;29;20055;-86
2023/11/30 09:04:46;;;;;;;0.20;0.20;;;;;;;4.66;66.56;101380.97;4838420;29;20038;-87
2023/11/30 09:07:12;;;;;;;0.20;0.20;;;;;;;4.72;65.88;101376.63;4809195;29;20037;-84
2023/11/30 09:09:37;;;;;;;0.20;0.20;;;;;;;4.79;64.71;101356.84;4822568;29;20034;-87
2023/11/30 09:12:03;;;;;;;0.20;0.20;;;;;;;4.76;64.33;101344.94;4840402;29;20026;-88
2023/11/30 09:14:30;;;;;;;0.20;0.20;;;;;;;4.98;64.36;101377.97;4840527;29;20053;-86
2023/11/30 09:16:56;;;;;;;0.20;0.20;;;;;;;4.84;64.20;101358.50;4808523;29;20026;-88
2023/11/30 09:19:21;;;;;;;0.20;0.20;;;;;;;4.95;63.85;101381.44;4816312;29;20034;-89
2023/11/30 09:21:46;;;;;;;0.20;0.20;;;;;;;4.77;64.27;101340.66;4808673;29;20050;-86
2023/11/30 09:24:12;;;;;;;0.20;0.20;;;;;;;5.04;63.47;101365.06;4823241;29;20045;-91
2023/11/30 09:26:37;;;;;;;0.20;0.20;;;;;;;5.11;62.41;101364.09;4823138;29;20416;-89
2023/11/30 09:29:03;;;;;;;0.20;0.20;;;;;;;5.02;63.03;101329.19;4842193;29;20034;-87
2023/11/30 09:31:28;;;;;;;0.20;0.20;;;;;;;5.23;62.49;101353.66;4841590;29;20042;-91
2023/11/30 09:33:54;;;;;;;0.20;0.20;;;;;;;5.26;62.67;101340.78;4815326;29;20041;-87
2023/11/30 09:36:19;;;;;;;0.10;0.10;;;;;;;5.21;62.95;101328.88;4840328;29;20038;-86
2023/11/30 09:38:44;;;;;;;0.20;0.20;;;;;;;5.27;63.52;101336.50;4823164;29;20041;-93
2023/11/30 09:41:12;;;;;;;0.20;0.20;;;;;;;5.40;63.67;101328.56;4825122;29;20069;-94
2023/11/30 09:43:37;;;;;;;0.20;0.20;;;;;;;5.31;62.76;101321.06;4797345;29;20500;-85
2023/11/30 09:46:03;;;;;;;0.20;0.20;;;;;;;5.48;64.41;101323.31;4807327;29;20086;-92
2023/11/30 09:48:28;;;;;;;0.20;0.20;;;;;;;5.28;63.42;101298.00;4808780;29;20450;-88
2023/11/30 09:50:54;;;;;;;0.20;0.20;;;;;;;5.41;62.61;101317.47;4839266;29;20428;-84
2023/11/30 09:53:21;;;;;;;0.20;0.20;;;;;;;5.51;62.70;101332.72;4824875;29;20045;-93
2023/11/30 09:55:46;;;;;;;0.20;0.20;;;;;;;5.42;62.54;101334.56;4809425;29;20659;-94
2023/11/30 09:58:13;;;;;;;0.20;0.20;;;;;;;5.41;62.79;101327.72;4833181;29;20044;-89
2023/11/30 10:00:38;;;;;;;0.20;0.20;;;;;;;5.44;62.53;101332.81;4839544;29;20031;-87
2023/11/30 10:03:05;;;;;;;0.20;0.20;;;;;;;5.51;63.01;101338.69;4819913;29;20038;-87
2023/11/30 10:05:31;;;;;;;0.20;0.20;;;;;;;5.36;62.88;101329.50;4823243;29;20053;-92
2023/11/30 10:07:59;;;;;;;0.20;0.20;;;;;;;5.41;62.78;101335.44;4821328;29;20041;-86
2023/11/30 10:10:25;;;;;;;0.20;0.20;;;;;;;5.44;62.38;101344.78;4827601;29;20033;-92
2023/11/30 10:12:53;;;;;;;0.20;0.20;;;;;;;5.50;62.17;101336.97;4823142;29;20045;-89
2023/11/30 10:15:20;;;;;;;0.20;0.20;;;;;;;5.63;61.54;101337.63;4838914;29;20115;-87
2023/11/30 10:17:46;;;;;;;0.20;0.20;;;;;;;5.39;61.97;101316.63;4793849;29;20045;-86
2023/11/30 10:20:12;;;;;;;0.20;0.20;;;;;;;5.66;62.05;101342.69;4838820;29;20486;-83
2023/11/30 10:22:39;;;;;;;0.20;0.20;;;;;;;5.53;61.05;101318.13;4834972;29;20539;-90
2023/11/30 10:25:07;;;;;;;0.20;0.20;;;;;;;5.33;61.61;101293.66;4821166;29;20053;-88
2023/11/30 10:27:32;;;;;;;0.20;0.20;;;;;;;5.54;61.46;101314.69;4837700;29;20030;-91
2023/11/30 10:29:59;;;;;;;0.10;0.10;;;;;;;5.55;61.58;101304.38;4822356;29;20529;-91
2023/11/30 10:32:25;;;;;;;0.20;0.20;;;;;;;5.68;61.21;101307.56;4822794;29;20144;-90
2023/11/30 10:34:50;;;;;;;0.20;0.20;;;;;;;5.79;61.64;101305.66;4823056;29;20536;-91
2023/11/30 10:37:20;;;;;;;0.20;0.20;;;;;;;5.79;59.97;101297.94;4819520;29;20056;-90
2023/11/30 10:40:00;;;;;;;0.20;0.20;;;;;;;5.98;59.96;101283.91;4825167;29;20034;-90
2023/11/30 10:42:26;;;;;;;0.20;0.20;;;;;;;5.88;60.77;101287.50;4822558;29;20038;-90
2023/11/30 10:44:52;;;;;;;0.15;0.15;;;;;;;6.14;61.53;101299.03;4822274;29;20057;-92
2023/11/30 10:47:18;;;;;;;0.20;0.20;;;;;;;6.25;61.18;101297.09;4805913;29;20037;-86
2023/11/30 10:49:46;;;;;;;0.20;0.20;;;;;;;6.31;58.29;101281.56;4812078;29;20409;-87
2023/11/30 10:52:13;;;;;;;0.20;0.20;;;;;;;6.30;57.25;101274.75;4804340;29;20050;-87
2023/11/30 10:54:42;;;;;;;0.20;0.20;;;;;;;6.46;57.43;101250.38;4819262;29;20037;-88
2023/11/30 10:57:07;;;;;;;0.20;0.20;;;;;;;6.51;56.58;101258.88;4807534;29;20505;-87
2023/11/30 10:59:33;;;;;;;0.10;0.10;;;;;;;6.54;56.94;101260.50;4839189;29;20081;-86
2023/11/30 11:01:59;;;;;;;0.20;0.20;;;;;;;6.58;56.40;101244.13;4797704;29;20553;-86
2023/11/30 11:04:26;;;;;;;0.20;0.20;;;;;;;6.61;56.08;101249.22;4810322;29;20042;-93
2023/11/30 11:07:08;;;;;;;0.20;0.20;;;;;;;6.53;56.21;101244.25;4812715;29;20066;-93
2023/11/30 11:09:43;;;;;;;0.20;0.20;;;;;;;6.48;56.27;101238.34;4837337;29;20542;-91
2023/11/30 11:12:25;;;;;;;0.20;0.20;;;;;;;6.65;55.37;101229.41;4813309;29;20175;-89
2023/11/30 11:14:52;;;;;;;0.20;0.20;;;;;;;6.85;56.20;101235.78;4806012;29;20031;-87
2023/11/30 11:17:21;;;;;;;0.20;0.20;;;;;;;6.80;54.95;101221.34;4814276;29;20110;-85
2023/11/30 11:19:47;;;;;;;0.20;0.20;;;;;;;6.74;54.81;101206.06;4801002;29;20107;-89
2023/11/30 11:22:26;;;;;;;0.10;0.10;;;;;;;6.64;54.57;101202.00;4818027;29;20034;-85
2023/11/30 11:25:01;;;;;;;0.20;0.20;;;;;;;6.94;54.77;101231.31;4820139;29;20098;-93
2023/11/30 11:27:30;;;;;;;0.20;0.20;;;;;;;6.92;54.54;101222.78;4821354;29;20053;-86
2023/11/30 11:29:58;;;;;;;0.20;0.20;;;;;;;6.93;54.13;101217.59;4804756;29;20030;-82
2023/11/30 11:32:24;;;;;;;0.10;0.10;;;;;;;6.97;54.46;101216.63;4804153;29;20050;-90
2023/11/30 11:34:50;;;;;;;0.17;0.17;;;;;;;6.94;53.86;101221.00;4816314;29;20046;-86
2023/11/30 11:37:15;;;;;;;0.20;0.20;;;;;;;6.99;53.70;101235.47;4819945;29;20038;-86
2023/11/30 11:39:41;;;;;;;0.20;0.20;;;;;;;6.98;53.76;101228.63;4819559;29;20473;-87
2023/11/30 11:42:10;;;;;;;0.20;0.20;;;;;;;7.10;53.20;101251.47;4817670;29;20054;-86
2023/11/30 11:44:35;;;;;;;0.20;0.20;;;;;;;7.00;53.15;101241.44;4820647;29;20110;-86
2023/11/30 11:47:01;;;;;;;0.20;0.20;;;;;;;6.92;53.47;101249.34;4825295;29;20113;-91
2023/11/30 11:49:26;;;;;;;0.20;0.20;;;;;;;6.90;53.10;101261.41;4820982;29;20409;-88
2023/11/30 11:51:54;;;;;;;0.20;0.20;;;;;;;6.61;53.30;101247.50;4820563;29;20175;-86
2023/11/30 11:54:21;;;;;;;0.20;0.20;;;;;;;6.57;53.25;101243.28;4815498;29;20026;-88
2023/11/30 11:56:51;;;;;;;0.20;0.20;;;;;;;6.58;52.66;101255.25;4821260;29;20062;-90
2023/11/30 11:59:26;;;;;;;0.10;0.10;;;;;;;6.55;52.03;101275.91;4807083;29;20118;-87
2023/11/30 12:01:51;;;;;;;0.20;0.20;;;;;;;6.46;52.34;101240.09;4807325;29;20054;-86
2023/11/30 12:04:36;;;;;;;0.20;0.20;;;;;;;6.70;54.04;101251.59;4805314;29;20121;-88
2023/11/30 12:07:12;;;;;;;0.10;0.10;;;;;;;6.79;53.73;101241.09;4819962;29;20053;-86
2023/11/30 12:09:38;;;;;;;0.20;0.20;;;;;;;6.77;54.23;101232.53;4806863;29;20171;-90
2023/11/30 12:12:10;;;;;;;0.20;0.20;;;;;;;6.93;54.05;101220.16;4798557;29;20114;-87
2023/11/30 12:14:35;;;;;;;0.20;0.20;;;;;;;6.91;53.70;101227.09;4821607;29;20046;-87
2023/11/30 12:17:01;;;;;;;0.20;0.20;;;;;;;6.94;53.71;101221.84;4822278;29;20494;-91
2023/11/30 12:19:28;;;;;;;0.25;0.25;;;;;;;6.99;55.06;101229.47;4822691;29;20069;-90
2023/11/30 12:21:55;;;;;;;0.10;0.10;;;;;;;7.02;53.35;101225.09;4820627;29;20394;-84
2023/11/30 12:24:21;;;;;;;0.20;0.20;;;;;;;7.06;53.40;101208.69;4804420;29;20134;-84
2023/11/30 12:26:46;;;;;;;0.20;0.20;;;;;;;6.91;54.40;101198.78;4799794;29;20057;-85
2023/11/30 12:29:12;;;;;;;0.20;0.20;;;;;;;6.98;54.57;101200.34;4836557;29;20493;-89
2023/11/30 12:31:37;;;;;;;0.20;0.20;;;;;;;6.98;54.54;101202.91;4821897;29;20498;-87
2023/11/30 12:34:03;;;;;;;0.20;0.20;;;;;;;6.90;53.62;101189.38;4822471;29;20046;-85
2023/11/30 12:36:29;;;;;;;0.20;0.20;;;;;;;6.87;53.98;101189.44;4821794;29;20042;-86
2023/11/30 12:38:54;;;;;;;0.20;0.20;;;;;;;7.01;54.35;101191.69;4804031;29;20113;-83
2023/11/30 12:41:20;;;;;;;0.20;0.20;;;;;;;7.14;53.45;101208.50;4820853;29;20147;-88
2023/11/30 12:43:45;;;;;;;0.20;0.20;;;;;;;7.19;53.24;101193.81;4821646;29;20038;-83
2023/11/30 12:46:11;;;;;;;0.20;0.20;;;;;;;7.04;53.29;101197.59;4826198;29;20033;-85
2023/11/30 12:48:36;;;;;;;0.20;0.20;;;;;;;7.07;53.23;101200.06;4806804;29;20057;-84
2023/11/30 12:51:02;;;;;;;0.20;0.20;;;;;;;7.06;53.67;101195.81;4807117;29;20038;-86
2023/11/30 12:53:28;;;;;;;0.20;0.20;;;;;;;7.03;54.35;101180.47;4818390;29;20035;-86
2023/11/30 12:55:53;;;;;;;0.20;0.20;;;;;;;7.03;54.25;101201.06;4818474;29;20077;-87
2023/11/30 12:58:19;;;;;;;0.10;0.10;;;;;;;7.02;54.75;101195.94;4813952;29;20031;-85
2023/11/30 13:00:45;;;;;;;0.10;0.10;;;;;;;7.06;55.01;101195.81;4810164;29;20031;-83
2023/11/30 13:03:10;;;;;;;0.20;0.20;;;;;;;7.05;54.01;101204.44;4820617;29;20113;-86
2023/11/30 13:05:36;;;;;;;0.20;0.20;;;;;;;7.03;53.78;101193.34;4821219;29;20070;-85
2023/11/30 13:08:01;;;;;;;0.10;0.10;;;;;;;7.03;54.33;101188.19;4817721;29;20114;-87
2023/11/30 13:10:27;;;;;;;0.10;0.10;;;;;;;7.04;53.52;101197.59;4819251;29;20069;-85
2023/11/30 13:12:53;;;;;;;0.10;0.10;;;;;;;7.03;54.31;101206.19;4816399;29;20130;-83
2023/11/30 13:15:18;;;;;;;0.20;0.20;;;;;;;7.00;53.80;101201.13;4802892;29;20651;-83
2023/11/30 13:17:45;;;;;;;0.20;0.20;;;;;;;7.02;54.15;101212.22;4818461;29;20128;-86
2023/11/30 13:20:14;;;;;;;0.20;0.20;;;;;;;7.07;55.34;101212.94;4817517;29;20069;-86
2023/11/30 13:22:41;;;;;;;0.20;0.20;;;;;;;7.06;55.04;101200.97;4820313;29;20042;-86
2023/11/30 13:25:07;;;;;;;0.13;0.13;;;;;;;6.89;55.41;101198.00;4823213;29;20446;-87
2023/11/30 13:27:33;;;;;;;0.20;0.20;;;;;;;6.87;56.64;101192.00;4839337;29;20435;-87
2023/11/30 13:29:59;;;;;;;0.20;0.20;;;;;;;6.90;56.76;101191.97;4809685;29;20042;-87
2023/11/30 13:32:27;;;;;;;0.20;0.20;;;;;;;6.93;56.94;101186.72;4813820;29;20038;-88
2023/11/30 13:34:52;;;;;;;0.20;0.20;;;;;;;6.90;57.07;101186.81;4811946;29;20030;-85
2023/11/30 13:37:18;;;;;;;0.20;0.20;;;;;;;6.88;56.53;101183.41;4796697;29;20059;-84
2023/11/30 13:39:43;;;;;;;0.20;0.20;;;;;;;6.95;57.47;101184.13;4810853;29;20075;-83
2023/11/30 13:42:09;;;;;;;0.20;0.20;;;;;;;6.74;57.70;101163.19;4823777;29;20050;-88
2023/11/30 13:44:35;;;;;;;0.20;0.20;;;;;;;6.79;58.03;101170.81;4814689;29;20394;-87
2023/11/30 13:47:01;;;;;;;0.20;0.20;;;;;;;6.79;58.11;101193.94;4830659;29;20086;-89
2023/11/30 13:49:26;;;;;;;0.10;0.10;;;;;;;6.69;59.06;101184.78;4811806;29;20041;-89
2023/11/30 13:51:52;;;;;;;0.20;0.20;;;;;;;6.58;58.77;101182.44;4816635;29;20394;-88
2023/11/30 13:54:17;;;;;;;0.20;0.20;;;;;;;6.72;58.59;101190.66;4825181;29;20030;-86
2023/11/30 13:56:43;;;;;;;0.10;0.10;;;;;;;6.68;58.48;101181.31;4840682;29;20045;-84
2023/11/30 13:59:09;;;;;;;0.20;0.20;;;;;;;6.61;58.99;101172.09;4823784;29;20126;-85
2023/11/30 14:01:35;;;;;;;0.20;0.20;;;;;;;6.58;59.06;101188.41;4840467;29;20062;-86
2023/11/30 14:04:03;;;;;;;0.10;0.10;;;;;;;6.59;59.26;101177.28;4808175;29;20030;-86
2023/11/30 14:06:29;;;;;;;0.10;0.10;;;;;;;6.56;59.75;101185.03;4838985;29;20072;-84
2023/11/30 14:08:54;;;;;;;0.20;0.20;;;;;;;6.60;60.24;101189.25;4822452;29;20073;-83
2023/11/30 14:11:20;;;;;;;0.20;0.20;;;;;;;6.70;59.37;101199.31;4824730;29;20037;-85
2023/11/30 14:13:46;;;;;;;0.10;0.10;;;;;;;6.67;59.92;101202.78;4839820;29;20080;-83
2023/11/30 14:16:11;;;;;;;0.20;0.20;;;;;;;6.72;59.59;101218.13;4831295;29;20029;-83
2023/11/30 14:18:37;;;;;;;0.10;0.10;;;;;;;6.52;60.50;101178.28;4805288;29;20035;-84
2023/11/30 14:21:02;;;;;;;0.20;0.20;;;;;;;6.57;60.35;101180.75;4821763;29;20079;-86
2023/11/30 14:23:28;;;;;;;0.20;0.20;;;;;;;6.43;60.70;101182.81;4838887;29;20038;-87
2023/11/30 14:25:53;;;;;;;0.10;0.10;;;;;;;6.33;60.58;101182.16;4833528;29;20046;-81
2023/11/30 14:28:19;;;;;;;0.20;0.20;;;;;;;6.21;61.20;101193.56;4823840;29;20038;-85
2023/11/30 14:30:45;;;;;;;0.20;0.20;;;;;;;6.22;61.10;101189.25;4790144;29;20030;-84
2023/11/30 14:33:11;;;;;;;0.20;0.20;;;;;;;6.15;61.66;101209.09;4837532;29;20041;-85
2023/11/30 14:35:37;;;;;;;0.10;0.10;;;;;;;6.07;62.29;101197.28;4823921;29;20484;-84
2023/11/30 14:38:03;;;;;;;0.20;0.20;;;;;;;5.88;61.72;101178.81;4837883;29;20038;-83
2023/11/30 14:40:28;;;;;;;0.20;0.20;;;;;;;5.92;61.83;101196.75;4858453;29;20034;-83
2023/11/30 14:42:54;;;;;;;0.10;0.10;;;;;;;6.03;61.74;101199.94;4856100;29;20409;-85
2023/11/30 14:45:19;;;;;;;0.20;0.20;;;;;;;5.92;61.88;101195.91;4854146;29;20532;-85
2023/11/30 14:47:46;;;;;;;0.20;0.20;;;;;;;5.92;61.73;101195.91;4821906;29;20045;-93
2023/11/30 14:50:12;;;;;;;0.10;0.10;;;;;;;5.72;62.15;101194.56;4827744;29;20030;-93
2023/11/30 14:52:37;;;;;;;0.20;0.20;;;;;;;5.69;62.36;101198.88;4826505;29;20435;-91
2023/11/30 14:55:03;;;;;;;0.20;0.20;;;;;;;5.61;62.19;101205.91;4823599;29;20086;-91
2023/11/30 14:57:29;;;;;;;0.20;0.20;;;;;;;5.62;62.43;101198.16;4819488;29;20110;-88
2023/11/30 14:59:59;;;;;;;0.15;0.15;;;;;;;5.57;62.18;101194.00;4797506;29;20086;-85
2023/11/30 15:02:25;;;;;;;0.20;0.20;;;;;;;5.36;62.87;101174.72;4776431;29;20111;-86
2023/11/30 15:04:52;;;;;;;0.20;0.20;;;;;;;5.44;62.65;101189.09;4821677;29;20390;-85
2023/11/30 15:07:18;;;;;;;0.20;0.20;;;;;;;5.41;63.03;101183.19;4819637;29;20489;-83
2023/11/30 15:09:44;;;;;;;0.20;0.20;;;;;;;5.50;62.89;101197.53;4808698;29;20041;-90
2023/11/30 15:12:10;;;;;;;0.20;0.20;;;;;;;5.44;63.09;101183.97;4822884;29;20029;-90
2023/11/30 15:14:36;;;;;;;0.20;0.20;;;;;;;5.44;63.37;101181.41;4822717;29;20026;-91
2023/11/30 15:17:01;;;;;;;0.20;0.20;;;;;;;5.37;63.54;101177.25;4822850;29;20493;-91
2023/11/30 15:19:27;;;;;;;0.20;0.20;;;;;;;5.32;63.54;101158.53;4806679;29;20128;-92
2023/11/30 15:21:52;;;;;;;0.20;0.20;;;;;;;5.33;63.53;101170.50;4806888;29;20512;-93
2023/11/30 15:24:18;;;;;;;0.20;0.20;;;;;;;5.33;64.15;101183.31;4837766;29;20481;-89
2023/11/30 15:26:45;;;;;;;0.10;0.10;;;;;;;5.23;64.65;101171.53;4804965;29;20041;-90
2023/11/30 15:29:10;;;;;;;0.20;0.20;;;;;;;5.23;64.66;101175.81;4807387;29;20033;-92